Time;durP1;ratioP1;P1;durP2;ratioP2;P2;SDS_P1;SDS_P2;PMS_P1;PMS_P2;Temp;Humidity;BMP_temperature;BMP_pressure;BME280_temperature;BME280_humidity;BME280_pressure;Samples;Min_cycle;Max_cycle;Signal;HPM_P1;HPM_P2
2023/07/24 00:01:10;;;;;;;2.15;1.90;;;20.40;99.90;;;;;;6213060;23;20279;-76
2023/07/24 00:03:36;;;;;;;3.08;1.05;;;20.30;99.90;;;;;;6212893;23;20000;-76
2023/07/24 00:06:01;;;;;;;3.05;1.30;;;20.40;99.90;;;;;;6212770;23;20542;-76
2023/07/24 00:08:27;;;;;;;2.58;1.70;;;20.30;99.90;;;;;;6212948;23;20012;-76
2023/07/24 00:10:53;;;;;;;2.03;1.50;;;20.40;99.90;;;;;;6211979;23;20047;-76
2023/07/24 00:13:18;;;;;;;1.70;1.60;;;20.40;99.90;;;;;;6186207;23;20489;-76
2023/07/24 00:15:44;;;;;;;4.40;1.88;;;20.40;99.90;;;;;;6186005;23;20005;-76
2023/07/24 00:18:09;;;;;;;2.08;1.88;;;20.40;99.90;;;;;;6212465;23;20007;-76
2023/07/24 00:20:35;;;;;;;1.75;1.30;;;20.40;99.90;;;;;;6213045;23;20083;-76
2023/07/24 00:23:01;;;;;;;1.65;1.27;;;20.30;99.90;;;;;;6212876;23;19997;-76
2023/07/24 00:25:26;;;;;;;2.63;1.85;;;20.30;99.90;;;;;;6212060;23;20087;-76
2023/07/24 00:27:52;;;;;;;1.60;1.23;;;20.30;99.90;;;;;;6212742;23;20476;-76
2023/07/24 00:30:18;;;;;;;1.75;1.50;;;20.30;99.90;;;;;;6212436;23;20719;-75
2023/07/24 00:32:43;;;;;;;1.60;1.20;;;20.30;99.90;;;;;;6212618;23;20007;-76
2023/07/24 00:35:09;;;;;;;2.10;1.65;;;20.20;99.90;;;;;;6212810;23;20004;-77
2023/07/24 00:37:34;;;;;;;4.13;1.67;;;20.20;99.90;;;;;;6212855;23;20032;-76
2023/07/24 00:40:00;;;;;;;2.13;1.45;;;20.20;99.90;;;;;;6211872;23;20479;-76
2023/07/24 00:42:26;;;;;;;2.97;1.85;;;20.20;99.90;;;;;;6185743;23;20043;-76
2023/07/24 00:44:51;;;;;;;1.80;1.25;;;20.20;99.90;;;;;;6212416;23;20414;-76
2023/07/24 00:47:17;;;;;;;2.30;1.63;;;20.10;99.90;;;;;;6212366;23;20000;-76
2023/07/24 00:49:44;;;;;;;4.13;1.73;;;20.10;99.90;;;;;;6212484;23;19996;-76
2023/07/24 00:52:10;;;;;;;1.58;1.30;;;20.00;99.90;;;;;;6212464;23;20001;-75
2023/07/24 00:54:36;;;;;;;2.38;1.52;;;20.00;99.90;;;;;;6211721;23;19996;-76
2023/07/24 00:57:04;;;;;;;1.75;1.65;;;20.00;99.90;;;;;;6212260;23;20076;-77
2023/07/24 00:59:30;;;;;;;2.35;1.45;;;20.00;99.90;;;;;;6212435;23;20055;-76
2023/07/24 01:01:56;;;;;;;2.30;1.40;;;20.00;99.90;;;;;;6212596;23;20005;-76
2023/07/24 01:04:22;;;;;;;3.78;1.70;;;19.90;99.90;;;;;;6212047;23;20477;-77
2023/07/24 01:06:48;;;;;;;3.75;1.27;;;20.00;99.90;;;;;;6212285;23;20004;-76
2023/07/24 01:09:13;;;;;;;1.83;1.58;;;20.00;99.90;;;;;;6211691;23;20330;-76
2023/07/24 01:11:50;;;;;;;2.50;1.58;;;20.00;99.90;;;;;;6212491;23;20065;-76
2023/07/24 01:14:34;;;;;;;3.10;1.58;;;20.00;99.90;;;;;;6212063;23;20326;-77
2023/07/24 01:17:01;;;;;;;2.30;1.92;;;20.00;99.90;;;;;;6212085;23;20005;-76
2023/07/24 01:19:40;;;;;;;2.20;1.50;;;20.00;99.90;;;;;;6212275;23;20004;-77
2023/07/24 01:22:25;;;;;;;4.15;2.13;;;20.00;99.90;;;;;;6212113;23;20008;-76
2023/07/24 01:25:19;;;;;;;3.28;2.40;;;20.00;99.90;;;;;;6211606;23;20028;-76
2023/07/24 01:27:45;;;;;;;2.30;2.10;;;20.00;99.90;;;;;;6212150;23;20009;-76
2023/07/24 01:30:12;;;;;;;2.92;2.67;;;20.00;99.90;;;;;;6211344;23;20071;-76
2023/07/24 01:32:39;;;;;;;3.10;2.80;;;20.00;99.90;;;;;;6212219;23;20011;-76
2023/07/24 01:35:05;;;;;;;4.20;3.25;;;20.00;99.90;;;;;;6212224;23;20000;-76
2023/07/24 01:37:31;;;;;;;4.25;3.85;;;20.00;99.90;;;;;;6211796;23;20004;-76
2023/07/24 01:39:57;;;;;;;7.45;3.78;;;20.00;99.90;;;;;;6211958;23;20016;-76
2023/07/24 01:42:25;;;;;;;3.10;2.80;;;19.90;99.90;;;;;;6212188;23;20000;-76
2023/07/24 01:44:55;;;;;;;3.33;3.00;;;19.90;99.90;;;;;;6211773;23;20004;-76
2023/07/24 01:47:21;;;;;;;4.05;2.83;;;19.80;99.90;;;;;;6212004;23;20051;-76
2023/07/24 01:49:47;;;;;;;4.10;3.65;;;19.90;99.90;;;;;;6211758;23;20032;-76
2023/07/24 01:52:12;;;;;;;4.30;2.95;;;19.90;99.90;;;;;;6211414;23;20003;-77
2023/07/24 01:54:38;;;;;;;3.25;2.80;;;19.90;99.90;;;;;;6212075;23;20001;-76
2023/07/24 01:57:04;;;;;;;3.45;3.08;;;20.00;99.90;;;;;;6211610;23;20012;-76
2023/07/24 01:59:29;;;;;;;4.88;3.58;;;20.00;99.90;;;;;;6211751;23;20008;-77
2023/07/24 02:01:55;;;;;;;5.18;3.15;;;19.90;99.90;;;;;;6211921;23;20749;-77
2023/07/24 02:04:22;;;;;;;4.18;3.13;;;19.90;99.90;;;;;;6211620;23;20454;-77
2023/07/24 02:06:50;;;;;;;3.70;3.00;;;19.90;99.90;;;;;;6212027;23;20004;-77
2023/07/24 02:09:18;;;;;;;3.15;2.85;;;19.90;99.90;;;;;;6212078;23;19997;-76
2023/07/24 02:11:44;;;;;;;3.60;3.13;;;19.90;99.90;;;;;;6211748;23;20077;-76
2023/07/24 02:14:11;;;;;;;3.88;3.25;;;19.90;99.90;;;;;;6211713;23;20024;-76
2023/07/24 02:16:37;;;;;;;3.30;2.53;;;19.80;99.90;;;;;;6211587;23;20013;-77
2023/07/24 02:19:02;;;;;;;3.80;3.35;;;19.80;99.90;;;;;;6211603;23;20078;-76
2023/07/24 02:21:28;;;;;;;4.68;3.47;;;19.90;99.90;;;;;;6211502;23;20004;-76
2023/07/24 02:23:53;;;;;;;5.28;3.38;;;19.90;99.90;;;;;;6211674;23;20059;-77
2023/07/24 02:26:19;;;;;;;3.65;3.00;;;19.90;99.90;;;;;;6211561;23;20087;-77
2023/07/24 02:28:45;;;;;;;3.90;3.03;;;19.90;99.90;;;;;;6211702;23;20003;-76
2023/07/24 02:31:10;;;;;;;6.28;4.40;;;19.90;99.90;;;;;;6211689;23;20005;-76
2023/07/24 02:33:36;;;;;;;3.70;3.00;;;19.90;99.90;;;;;;6211473;23;20007;-76
2023/07/24 02:36:02;;;;;;;3.80;2.97;;;19.90;99.90;;;;;;6211229;23;20437;-77
2023/07/24 02:38:27;;;;;;;4.45;3.97;;;19.90;99.90;;;;;;6185181;23;20341;-76
2023/07/24 02:40:53;;;;;;;5.75;3.50;;;19.90;99.90;;;;;;6211896;23;20047;-76
2023/07/24 02:43:18;;;;;;;5.07;3.67;;;19.90;99.90;;;;;;6213553;23;20038;-77
2023/07/24 02:45:44;;;;;;;4.28;3.88;;;19.90;99.90;;;;;;6213596;23;20028;-76
2023/07/24 02:48:09;;;;;;;4.07;3.00;;;19.90;99.90;;;;;;6213500;23;20007;-77
2023/07/24 02:50:35;;;;;;;6.45;4.07;;;19.90;99.90;;;;;;6213373;23;19997;-77
2023/07/24 02:53:01;;;;;;;4.78;3.75;;;19.90;99.90;;;;;;6213322;23;20100;-77
2023/07/24 02:55:26;;;;;;;5.05;3.97;;;19.90;99.90;;;;;;6213722;23;20043;-77
2023/07/24 02:57:53;;;;;;;3.55;3.25;;;20.00;99.90;;;;;;6213360;23;20004;-77
2023/07/24 03:00:19;;;;;;;4.72;4.00;;;19.90;99.90;;;;;;6213369;23;20008;-77
2023/07/24 03:02:44;;;;;;;5.93;3.70;;;19.90;99.90;;;;;;6213351;23;20071;-77
2023/07/24 03:05:10;;;;;;;4.35;3.70;;;19.90;99.90;;;;;;6212954;23;20395;-76
2023/07/24 03:07:36;;;;;;;4.75;4.03;;;19.90;99.90;;;;;;6213497;23;20000;-76
2023/07/24 03:10:03;;;;;;;6.55;4.15;;;19.90;99.90;;;;;;6213557;23;20082;-77
2023/07/24 03:12:28;;;;;;;4.20;3.80;;;19.90;99.90;;;;;;6213533;23;20452;-77
2023/07/24 03:14:54;;;;;;;4.25;3.85;;;19.90;99.90;;;;;;6213229;23;20036;-76
2023/07/24 03:17:19;;;;;;;4.72;3.95;;;19.90;99.90;;;;;;6212493;23;20488;-76
2023/07/24 03:19:45;;;;;;;5.20;4.03;;;19.80;99.90;;;;;;6212066;23;20337;-76
2023/07/24 03:22:10;;;;;;;4.68;4.28;;;19.80;99.90;;;;;;6213068;23;20005;-76
2023/07/24 03:24:36;;;;;;;4.72;4.28;;;19.80;99.90;;;;;;6213012;23;20009;-76
2023/07/24 03:27:02;;;;;;;5.35;4.80;;;19.80;99.90;;;;;;6212645;23;20000;-76
2023/07/24 03:29:27;;;;;;;6.95;4.55;;;19.80;99.90;;;;;;6186880;23;20007;-76
2023/07/24 03:31:53;;;;;;;5.78;4.65;;;19.80;99.90;;;;;;6213162;23;20083;-76
2023/07/24 03:34:19;;;;;;;6.32;5.60;;;19.80;99.90;;;;;;6212746;23;20005;-77
2023/07/24 03:36:45;;;;;;;5.97;5.38;;;19.70;99.90;;;;;;6213559;23;20296;-76
2023/07/24 03:39:11;;;;;;;5.50;5.00;;;19.70;99.90;;;;;;6213151;23;20008;-77
2023/07/24 03:41:37;;;;;;;7.38;5.82;;;19.70;99.90;;;;;;6212923;23;20585;-77
2023/07/24 03:44:03;;;;;;;6.07;5.57;;;19.70;99.90;;;;;;6213133;23;20009;-76
2023/07/24 03:46:28;;;;;;;6.18;5.65;;;19.60;99.90;;;;;;6213162;23;20004;-76
2023/07/24 03:48:54;;;;;;;6.90;6.13;;;19.70;99.90;;;;;;6212662;23;20072;-76
2023/07/24 03:51:19;;;;;;;6.30;5.70;;;19.60;99.90;;;;;;6212988;23;19997;-76
2023/07/24 03:53:45;;;;;;;6.28;5.68;;;19.60;99.90;;;;;;6212035;23;20083;-76
2023/07/24 03:56:11;;;;;;;6.30;5.65;;;19.60;99.90;;;;;;6213195;23;20470;-75
2023/07/24 03:58:38;;;;;;;6.35;5.55;;;19.50;99.90;;;;;;6213054;23;20005;-76
2023/07/24 04:01:04;;;;;;;5.90;5.40;;;19.50;99.90;;;;;;6212782;23;20008;-75
2023/07/24 04:03:29;;;;;;;6.82;6.13;;;19.60;99.90;;;;;;6212409;23;20001;-76
2023/07/24 04:05:55;;;;;;;5.13;4.70;;;19.50;99.90;;;;;;6212759;23;20004;-75
2023/07/24 04:08:21;;;;;;;4.72;4.32;;;19.50;99.90;;;;;;6212872;23;20035;-76
2023/07/24 04:10:46;;;;;;;4.57;4.18;;;19.50;99.90;;;;;;6212655;23;20083;-76
2023/07/24 04:13:12;;;;;;;5.63;4.82;;;19.50;99.90;;;;;;6212920;23;20079;-76
2023/07/24 04:15:39;;;;;;;5.63;4.68;;;19.50;99.90;;;;;;6212763;23;20005;-76
2023/07/24 04:18:04;;;;;;;5.68;4.85;;;19.50;99.90;;;;;;6211894;23;20005;-75
2023/07/24 04:20:30;;;;;;;5.40;4.90;;;19.50;99.90;;;;;;6213014;23;20330;-75
2023/07/24 04:22:56;;;;;;;5.45;4.95;;;19.50;99.90;;;;;;6212882;23;20005;-76
2023/07/24 04:25:21;;;;;;;6.20;5.18;;;19.50;99.90;;;;;;6212405;23;20008;-76
2023/07/24 04:27:47;;;;;;;5.72;5.00;;;19.50;99.90;;;;;;6185903;23;20008;-75
2023/07/24 04:30:13;;;;;;;5.68;5.18;;;19.40;99.90;;;;;;6212651;23;20080;-76
2023/07/24 04:32:38;;;;;;;5.40;4.68;;;19.40;99.90;;;;;;6212413;23;19997;-75
2023/07/24 04:35:04;;;;;;;5.50;5.00;;;19.40;99.90;;;;;;6212690;23;20011;-75
2023/07/24 04:37:30;;;;;;;6.05;5.55;;;19.40;99.90;;;;;;6212950;23;20008;-75
2023/07/24 04:39:55;;;;;;;6.25;5.65;;;19.40;99.90;;;;;;6212599;23;20063;-76
2023/07/24 04:42:21;;;;;;;5.22;4.82;;;19.40;99.90;;;;;;6212400;23;20007;-76
2023/07/24 04:44:47;;;;;;;5.50;5.00;;;19.40;99.90;;;;;;6212182;23;20005;-76
2023/07/24 04:47:12;;;;;;;7.10;6.05;;;19.40;99.90;;;;;;6211897;23;20403;-75
2023/07/24 04:49:38;;;;;;;6.20;5.68;;;19.40;99.90;;;;;;6212525;23;20035;-75
2023/07/24 04:52:04;;;;;;;8.15;5.72;;;19.40;99.90;;;;;;6212599;23;20035;-75
2023/07/24 04:54:29;;;;;;;6.95;6.35;;;19.40;99.90;;;;;;6212284;23;20354;-75
2023/07/24 04:56:55;;;;;;;7.18;6.57;;;19.40;99.90;;;;;;6185784;23;20424;-75
2023/07/24 04:59:20;;;;;;;6.95;6.32;;;19.40;99.90;;;;;;6212284;23;20005;-75
2023/07/24 05:01:46;;;;;;;7.70;6.95;;;19.40;99.90;;;;;;6211931;23;20146;-75
2023/07/24 05:04:11;;;;;;;7.28;6.57;;;19.40;99.90;;;;;;6212189;23;20009;-75
2023/07/24 05:06:38;;;;;;;7.28;6.65;;;19.40;99.90;;;;;;6212355;23;20410;-75
2023/07/24 05:09:04;;;;;;;8.48;7.68;;;19.40;99.90;;;;;;6212119;23;20020;-75
2023/07/24 05:11:29;;;;;;;7.63;6.95;;;19.40;99.90;;;;;;6212549;23;20001;-75
2023/07/24 05:13:55;;;;;;;8.00;7.13;;;19.30;99.90;;;;;;6212207;23;20008;-75
2023/07/24 05:16:20;;;;;;;8.60;7.85;;;19.40;99.90;;;;;;6211785;23;20001;-75
2023/07/24 05:18:46;;;;;;;7.50;6.80;;;19.30;99.90;;;;;;6212094;23;20476;-75
2023/07/24 05:21:11;;;;;;;8.90;6.97;;;19.30;99.90;;;;;;6212372;23;20000;-75
2023/07/24 05:23:37;;;;;;;8.20;7.55;;;19.40;99.90;;;;;;6211970;23;20011;-76
2023/07/24 05:26:03;;;;;;;8.40;7.55;;;19.40;99.90;;;;;;6211948;23;20001;-76
2023/07/24 05:28:30;;;;;;;7.78;7.07;;;19.30;99.90;;;;;;6212206;23;20335;-76
2023/07/24 05:30:59;;;;;;;6.72;6.03;;;19.40;99.90;;;;;;6211708;23;20108;-75
2023/07/24 05:33:25;;;;;;;6.57;5.97;;;19.40;99.90;;;;;;6211927;23;19997;-76
2023/07/24 05:35:51;;;;;;;6.53;5.80;;;19.40;99.90;;;;;;6185436;23;20084;-75
2023/07/24 05:38:16;;;;;;;7.97;7.25;;;19.50;99.90;;;;;;6211939;23;20024;-76
2023/07/24 05:40:42;;;;;;;8.98;7.70;;;19.50;99.90;;;;;;6212180;23;20004;-75
2023/07/24 05:43:07;;;;;;;8.63;7.75;;;19.60;99.90;;;;;;6211762;23;20001;-76
2023/07/24 05:45:33;;;;;;;9.30;7.80;;;19.50;99.90;;;;;;6211724;23;20046;-75
2023/07/24 05:47:58;;;;;;;8.10;7.22;;;19.60;99.90;;;;;;6211904;23;20004;-76
2023/07/24 05:50:24;;;;;;;9.38;7.50;;;19.70;99.90;;;;;;6211828;23;20001;-76
2023/07/24 05:52:49;;;;;;;8.13;7.25;;;19.70;99.90;;;;;;6210338;23;20017;-76
2023/07/24 05:55:15;;;;;;;7.93;7.13;;;19.70;99.90;;;;;;6209325;23;20028;-76
2023/07/24 05:57:41;;;;;;;9.38;8.48;;;19.70;99.90;;;;;;6208801;23;19997;-76
2023/07/24 06:00:07;;;;;;;8.60;7.63;;;19.70;99.90;;;;;;6210516;23;20008;-76
2023/07/24 06:02:32;;;;;;;10.52;9.27;;;19.70;99.90;;;;;;6211092;23;20430;-76
2023/07/24 06:04:58;;;;;;;10.95;9.90;;;19.80;99.90;;;;;;6185220;23;20007;-76
2023/07/24 06:07:24;;;;;;;9.63;8.73;;;19.80;99.90;;;;;;6211751;23;20011;-76
2023/07/24 06:09:49;;;;;;;8.85;8.05;;;19.80;99.90;;;;;;6211414;23;20414;-77
2023/07/24 06:12:15;;;;;;;9.50;8.60;;;19.80;99.90;;;;;;6211202;23;20365;-77
2023/07/24 06:14:41;;;;;;;9.77;8.88;;;19.80;99.90;;;;;;6211196;23;20004;-77
2023/07/24 06:17:06;;;;;;;9.55;8.23;;;19.80;99.90;;;;;;6212975;23;20016;-78
2023/07/24 06:19:32;;;;;;;9.50;8.55;;;19.80;99.90;;;;;;6214302;23;20019;-77
2023/07/24 06:21:58;;;;;;;8.80;8.00;;;19.80;99.90;;;;;;6214141;23;20068;-78
2023/07/24 06:24:23;;;;;;;9.13;7.70;;;19.80;99.90;;;;;;6213873;23;20003;-77
2023/07/24 06:26:50;;;;;;;9.13;8.18;;;19.80;99.90;;;;;;6213693;23;20024;-77
2023/07/24 06:29:16;;;;;;;11.35;10.10;;;19.80;99.90;;;;;;6213065;23;20023;-77
2023/07/24 06:31:41;;;;;;;8.98;8.20;;;19.90;99.90;;;;;;6213818;23;20001;-77
2023/07/24 06:34:07;;;;;;;9.45;8.23;;;19.90;99.90;;;;;;6213555;23;20035;-77
2023/07/24 06:36:33;;;;;;;10.60;9.50;;;20.00;99.90;;;;;;6214035;23;20128;-77
2023/07/24 06:38:58;;;;;;;9.55;8.65;;;20.00;99.90;;;;;;6213709;23;20009;-76
2023/07/24 06:41:25;;;;;;;9.07;8.27;;;20.00;99.90;;;;;;6187032;23;20014;-76
2023/07/24 06:43:51;;;;;;;10.70;9.05;;;20.00;99.90;;;;;;6213044;23;20072;-77
2023/07/24 06:46:16;;;;;;;10.55;9.57;;;20.10;99.90;;;;;;6213432;23;20058;-77
2023/07/24 06:48:42;;;;;;;9.98;8.98;;;20.10;99.90;;;;;;6213816;23;20007;-76
2023/07/24 06:51:08;;;;;;;10.13;8.65;;;20.10;99.90;;;;;;6213432;23;20059;-77
2023/07/24 06:53:33;;;;;;;10.07;9.13;;;20.00;99.90;;;;;;6213944;23;20020;-77
2023/07/24 06:55:59;;;;;;;11.93;10.82;;;20.00;99.90;;;;;;6213321;23;20430;-76
2023/07/24 06:58:24;;;;;;;11.57;10.57;;;20.00;99.90;;;;;;6212857;23;20004;-77
2023/07/24 07:00:50;;;;;;;10.90;9.73;;;20.00;99.90;;;;;;6209284;23;20005;-76
2023/07/24 07:03:15;;;;;;;11.70;10.50;;;20.00;99.90;;;;;;6212864;23;20009;-76
2023/07/24 07:05:41;;;;;;;11.40;10.40;;;20.10;99.90;;;;;;6211275;23;20005;-76
2023/07/24 07:08:07;;;;;;;11.13;9.82;;;20.10;99.90;;;;;;6213227;23;20304;-76
2023/07/24 07:10:32;;;;;;;12.48;11.23;;;20.20;99.90;;;;;;6212902;23;20013;-77
2023/07/24 07:12:58;;;;;;;12.88;11.57;;;20.30;99.90;;;;;;6212515;23;19996;-77
2023/07/24 07:15:23;;;;;;;13.52;12.32;;;20.30;99.90;;;;;;6183901;23;20091;-76
2023/07/24 07:17:49;;;;;;;11.13;10.13;;;20.40;99.90;;;;;;6212611;23;20004;-76
2023/07/24 07:20:15;;;;;;;13.43;12.15;;;20.50;99.90;;;;;;6212748;23;20028;-77
2023/07/24 07:22:40;;;;;;;10.82;9.73;;;20.60;99.90;;;;;;6212665;23;20007;-77
2023/07/24 07:25:06;;;;;;;14.63;13.23;;;20.80;99.90;;;;;;6212224;23;20028;-77
2023/07/24 07:27:32;;;;;;;14.50;13.20;;;21.00;99.90;;;;;;6184428;23;20032;-76
2023/07/24 07:29:57;;;;;;;14.73;12.77;;;21.00;99.90;;;;;;6186392;23;20099;-77
2023/07/24 07:32:23;;;;;;;13.13;11.85;;;21.00;99.90;;;;;;6212723;23;20001;-77
2023/07/24 07:34:48;;;;;;;13.68;11.93;;;21.20;99.90;;;;;;6186239;23;20005;-76
2023/07/24 07:37:14;;;;;;;13.02;11.82;;;21.30;99.90;;;;;;6211865;23;20104;-77
2023/07/24 07:39:39;;;;;;;13.45;12.15;;;21.30;99.90;;;;;;6212442;23;20004;-77
2023/07/24 07:42:05;;;;;;;13.07;11.75;;;21.30;99.90;;;;;;6212003;23;20371;-77
2023/07/24 07:44:30;;;;;;;14.07;12.65;;;21.30;99.90;;;;;;6213000;23;20008;-77
2023/07/24 07:46:56;;;;;;;12.95;11.70;;;21.40;99.90;;;;;;6212718;23;20079;-77
2023/07/24 07:49:22;;;;;;;13.32;12.02;;;21.40;99.90;;;;;;6210963;23;20007;-76
2023/07/24 07:51:47;;;;;;;14.25;12.82;;;21.40;99.90;;;;;;6213104;23;19997;-76
2023/07/24 07:54:13;;;;;;;12.75;11.65;;;21.40;99.90;;;;;;6212743;23;20385;-77
2023/07/24 07:56:39;;;;;;;14.98;13.60;;;21.40;99.90;;;;;;6212319;23;20374;-76
2023/07/24 07:59:04;;;;;;;14.13;12.73;;;21.50;99.90;;;;;;6211593;23;20008;-77
2023/07/24 08:01:30;;;;;;;13.65;12.27;;;21.50;99.90;;;;;;6212617;23;20051;-77
2023/07/24 08:03:56;;;;;;;12.25;11.05;;;21.50;99.90;;;;;;6212548;23;20000;-76
2023/07/24 08:06:22;;;;;;;12.45;11.27;;;21.40;99.90;;;;;;6211487;23;20016;-77
2023/07/24 08:08:47;;;;;;;12.27;11.18;;;21.30;99.90;;;;;;6212710;23;20004;-77
2023/07/24 08:11:13;;;;;;;12.88;11.68;;;21.30;99.90;;;;;;6210878;23;20027;-77
2023/07/24 08:13:39;;;;;;;13.23;12.13;;;21.20;99.90;;;;;;6211932;23;20005;-77
2023/07/24 08:16:13;;;;;;;16.90;15.30;;;21.10;99.90;;;;;;6212047;23;20003;-77
2023/07/24 08:18:38;;;;;;;13.35;11.95;;;21.10;99.90;;;;;;6212187;23;20422;-77
2023/07/24 08:21:04;;;;;;;13.82;12.60;;;21.10;99.90;;;;;;6210769;23;20008;-77
2023/07/24 08:23:31;;;;;;;12.73;11.57;;;21.00;99.90;;;;;;6211968;23;20005;-77
2023/07/24 08:25:57;;;;;;;14.82;13.55;;;21.00;99.90;;;;;;6211793;23;20073;-77
2023/07/24 08:28:22;;;;;;;13.60;12.30;;;20.90;99.90;;;;;;6210562;23;20588;-77
2023/07/24 08:30:58;;;;;;;13.82;12.52;;;20.80;99.90;;;;;;6212554;23;20023;-77
2023/07/24 08:33:24;;;;;;;13.07;11.75;;;20.90;99.90;;;;;;6210543;23;20001;-77
2023/07/24 08:36:04;;;;;;;12.23;11.13;;;21.00;99.90;;;;;;6212360;23;20000;-77
2023/07/24 08:38:30;;;;;;;13.90;12.10;;;21.10;99.90;;;;;;6211712;23;19997;-77
2023/07/24 08:41:07;;;;;;;13.15;11.90;;;21.20;99.90;;;;;;6185658;23;20008;-77
2023/07/24 08:43:35;;;;;;;11.63;10.70;;;21.30;99.90;;;;;;6211116;23;20331;-77
2023/07/24 08:46:02;;;;;;;11.77;10.75;;;21.40;99.90;;;;;;6212672;23;19996;-77
2023/07/24 08:48:33;;;;;;;12.20;11.02;;;21.60;99.90;;;;;;6212202;23;20004;-77
2023/07/24 08:51:00;;;;;;;12.25;11.20;;;21.70;99.90;;;;;;6208416;23;20000;-77
2023/07/24 08:53:26;;;;;;;11.45;10.45;;;21.80;99.90;;;;;;6208588;23;20023;-77
2023/07/24 08:55:54;;;;;;;10.90;10.00;;;21.80;99.90;;;;;;6211761;23;20000;-75
2023/07/24 08:58:20;;;;;;;11.63;10.48;;;22.00;99.90;;;;;;6212178;23;20426;-77
2023/07/24 09:00:46;;;;;;;13.15;10.45;;;22.20;99.90;;;;;;6211829;23;20079;-77
2023/07/24 09:03:11;;;;;;;10.88;9.88;;;22.40;99.90;;;;;;6209436;23;20011;-76
2023/07/24 09:05:37;;;;;;;12.05;10.98;;;22.50;99.90;;;;;;6212087;23;20434;-78
2023/07/24 09:08:03;;;;;;;16.55;10.85;;;22.60;99.90;;;;;;6210779;23;20012;-77
2023/07/24 09:10:28;;;;;;;11.25;10.35;;;22.70;99.90;;;;;;6185475;23;20005;-77
2023/07/24 09:12:55;;;;;;;9.52;8.60;;;22.80;99.90;;;;;;6211765;23;20446;-77
2023/07/24 09:15:20;;;;;;;12.18;10.88;;;22.90;99.70;;;;;;6210188;23;20032;-77
2023/07/24 09:17:53;;;;;;;10.55;9.57;;;23.00;99.20;;;;;;6211695;23;20005;-77
2023/07/24 09:20:19;;;;;;;10.73;9.82;;;23.10;99.00;;;;;;6211712;23;20446;-77
2023/07/24 09:22:52;;;;;;;10.43;9.55;;;23.10;98.80;;;;;;6211394;23;20001;-77
2023/07/24 09:25:18;;;;;;;9.80;8.90;;;23.10;98.50;;;;;;6210492;23;20080;-77
2023/07/24 09:27:44;;;;;;;10.70;9.55;;;23.00;98.30;;;;;;6210655;23;20032;-77
2023/07/24 09:30:14;;;;;;;9.45;8.63;;;22.90;98.20;;;;;;6184590;23;20104;-77
2023/07/24 09:32:40;;;;;;;9.50;8.70;;;22.80;98.40;;;;;;6211933;23;20004;-77
2023/07/24 09:35:17;;;;;;;9.27;8.57;;;22.80;98.30;;;;;;6210806;23;20315;-75
2023/07/24 09:37:43;;;;;;;9.45;8.68;;;22.70;98.40;;;;;;6210222;23;20011;-75
2023/07/24 09:40:11;;;;;;;8.60;7.72;;;22.70;98.20;;;;;;6211179;23;20005;-75
2023/07/24 09:42:39;;;;;;;8.57;7.80;;;22.90;98.30;;;;;;6211545;23;20149;-75
2023/07/24 09:45:05;;;;;;;9.23;7.82;;;23.00;97.80;;;;;;6211184;23;20007;-75
2023/07/24 09:47:31;;;;;;;8.48;7.60;;;23.20;97.60;;;;;;6210430;23;20008;-75
2023/07/24 09:49:58;;;;;;;8.90;8.00;;;23.20;97.20;;;;;;6211542;23;20005;-75
2023/07/24 09:52:26;;;;;;;8.20;7.40;;;23.20;97.10;;;;;;6210183;23;20004;-75
2023/07/24 09:55:08;;;;;;;8.02;7.25;;;23.20;97.00;;;;;;6211807;23;20012;-75
2023/07/24 09:57:35;;;;;;;9.48;7.53;;;23.20;96.80;;;;;;6210769;23;20004;-75
2023/07/24 10:00:01;;;;;;;7.80;6.60;;;23.20;96.70;;;;;;6211496;23;20028;-75
2023/07/24 10:02:28;;;;;;;8.60;7.20;;;23.20;96.60;;;;;;6211797;23;20059;-75
2023/07/24 10:04:55;;;;;;;9.02;7.70;;;23.30;96.80;;;;;;6211018;23;20050;-75
2023/07/24 10:07:22;;;;;;;8.10;7.18;;;23.30;96.70;;;;;;6211301;23;20074;-75
2023/07/24 10:09:50;;;;;;;8.45;7.65;;;23.20;96.40;;;;;;6210072;23;20031;-75
2023/07/24 10:12:17;;;;;;;8.27;6.85;;;23.00;96.80;;;;;;6211397;23;20001;-75
2023/07/24 10:14:44;;;;;;;11.18;8.50;;;22.80;96.70;;;;;;6211665;23;20020;-75
2023/07/24 10:17:10;;;;;;;7.93;7.03;;;22.80;96.80;;;;;;6211399;23;20009;-75
2023/07/24 10:19:39;;;;;;;7.45;6.85;;;22.70;96.80;;;;;;6209534;23;20039;-75
2023/07/24 10:22:04;;;;;;;9.00;8.20;;;22.70;96.80;;;;;;6211312;23;20327;-75
2023/07/24 10:24:30;;;;;;;9.32;7.47;;;22.80;97.20;;;;;;6212009;23;20035;-75
2023/07/24 10:26:56;;;;;;;7.85;7.03;;;22.90;97.00;;;;;;6211596;23;20005;-74
2023/07/24 10:29:28;;;;;;;8.68;7.88;;;23.00;96.80;;;;;;6211768;23;20441;-74
2023/07/24 10:31:54;;;;;;;8.18;7.40;;;23.10;96.40;;;;;;6210250;23;20422;-75
2023/07/24 10:34:20;;;;;;;8.82;8.02;;;23.10;96.30;;;;;;6210971;23;20032;-75
2023/07/24 10:36:45;;;;;;;8.55;7.43;;;23.10;96.20;;;;;;6211200;23;20067;-76
2023/07/24 10:39:21;;;;;;;8.02;7.32;;;23.10;96.30;;;;;;6211475;23;20421;-75
2023/07/24 10:41:46;;;;;;;8.93;8.15;;;23.00;96.20;;;;;;6209920;23;20084;-75
2023/07/24 10:44:12;;;;;;;9.05;8.15;;;23.00;96.20;;;;;;6211594;23;20032;-74
2023/07/24 10:46:40;;;;;;;8.75;7.95;;;23.00;96.20;;;;;;6211417;23;20036;-74
2023/07/24 10:49:07;;;;;;;8.02;7.38;;;23.00;96.40;;;;;;6209889;23;20000;-75
2023/07/24 10:51:34;;;;;;;8.20;7.45;;;22.90;96.40;;;;;;6182421;23;20046;-75
2023/07/24 10:53:59;;;;;;;7.68;6.97;;;23.00;96.60;;;;;;6207890;23;20016;-75
2023/07/24 10:56:25;;;;;;;8.68;6.97;;;22.90;96.50;;;;;;6210108;23;20004;-74
2023/07/24 10:58:51;;;;;;;9.02;7.97;;;23.00;96.50;;;;;;6184217;23;20011;-74
2023/07/24 11:01:18;;;;;;;8.48;6.90;;;22.90;96.50;;;;;;6210084;23;20082;-73
2023/07/24 11:03:44;;;;;;;7.10;6.38;;;22.90;96.40;;;;;;6210912;23;20009;-73
2023/07/24 11:06:17;;;;;;;8.18;7.40;;;22.90;96.50;;;;;;6212532;23;20418;-74
2023/07/24 11:08:52;;;;;;;7.00;6.30;;;22.90;96.50;;;;;;6211453;23;20426;-73
2023/07/24 11:11:17;;;;;;;9.77;7.28;;;22.90;96.30;;;;;;6213068;23;20007;-73
2023/07/24 11:13:43;;;;;;;7.55;6.55;;;23.00;96.20;;;;;;6211765;23;19997;-73
2023/07/24 11:16:09;;;;;;;7.78;6.80;;;23.10;96.10;;;;;;6212538;23;20004;-74
2023/07/24 11:18:46;;;;;;;6.93;6.22;;;23.10;95.90;;;;;;6212349;23;20437;-74
2023/07/24 11:21:12;;;;;;;8.05;7.35;;;23.30;95.60;;;;;;6212620;23;20024;-74
2023/07/24 11:23:44;;;;;;;7.30;6.60;;;23.40;95.40;;;;;;6212224;23;20059;-74
2023/07/24 11:26:09;;;;;;;6.85;6.15;;;23.50;95.30;;;;;;6212546;23;20072;-73
2023/07/24 11:28:40;;;;;;;7.10;6.38;;;23.50;95.20;;;;;;6213020;23;20035;-73
2023/07/24 11:31:05;;;;;;;7.88;7.18;;;23.60;95.30;;;;;;6211743;23;20005;-73
2023/07/24 11:33:31;;;;;;;9.30;7.85;;;23.60;95.00;;;;;;6212373;23;20058;-74
2023/07/24 11:35:57;;;;;;;8.57;7.78;;;23.50;95.00;;;;;;6211221;23;20373;-73
2023/07/24 11:38:23;;;;;;;10.13;8.25;;;23.30;95.30;;;;;;6212462;23;20008;-73
2023/07/24 11:40:49;;;;;;;9.18;8.15;;;23.30;95.50;;;;;;6212746;23;20001;-73
2023/07/24 11:43:23;;;;;;;9.13;8.15;;;23.10;95.80;;;;;;6212396;23;20449;-73
2023/07/24 11:45:54;;;;;;;10.02;8.77;;;23.00;96.20;;;;;;6210569;23;20005;-74
2023/07/24 11:48:24;;;;;;;9.23;8.32;;;22.90;96.50;;;;;;6211688;23;20004;-74
2023/07/24 11:50:54;;;;;;;10.60;9.23;;;23.00;96.60;;;;;;6212390;23;20004;-74
2023/07/24 11:53:29;;;;;;;8.68;7.93;;;23.10;96.90;;;;;;6211415;23;20012;-74
2023/07/24 11:55:56;;;;;;;9.88;8.65;;;23.20;96.60;;;;;;6212042;23;20004;-74
2023/07/24 11:58:25;;;;;;;8.57;7.82;;;23.40;96.60;;;;;;6210712;23;20482;-74
2023/07/24 12:00:51;;;;;;;9.85;8.80;;;23.50;96.40;;;;;;6211693;23;20011;-74
2023/07/24 12:03:28;;;;;;;7.50;6.40;;;23.60;95.80;;;;;;6211433;23;20008;-73
2023/07/24 12:05:54;;;;;;;7.13;6.20;;;23.70;95.30;;;;;;6212368;23;20004;-73
2023/07/24 12:08:40;;;;;;;6.88;5.13;;;23.70;95.10;;;;;;6211015;23;20500;-74
2023/07/24 12:11:18;;;;;;;7.50;6.30;;;23.90;94.90;;;;;;6211728;23;20088;-73
2023/07/24 12:13:43;;;;;;;7.13;5.38;;;23.90;94.20;;;;;;6212179;23;20008;-74
2023/07/24 12:16:09;;;;;;;8.40;5.85;;;23.90;94.00;;;;;;6212121;23;20318;-73
2023/07/24 12:18:34;;;;;;;9.05;6.05;;;23.80;93.80;;;;;;6211360;23;19996;-73
2023/07/24 12:21:00;;;;;;;7.35;6.45;;;23.80;94.10;;;;;;6185927;23;20004;-74
2023/07/24 12:23:26;;;;;;;7.22;5.55;;;23.80;94.10;;;;;;6212404;23;20001;-73
2023/07/24 12:25:52;;;;;;;7.53;5.82;;;23.80;93.90;;;;;;6211717;23;20007;-74
2023/07/24 12:28:17;;;;;;;5.85;5.30;;;23.90;93.80;;;;;;6211298;23;20020;-73
2023/07/24 12:30:43;;;;;;;5.47;4.93;;;23.90;93.80;;;;;;6210723;23;20004;-74
2023/07/24 12:33:08;;;;;;;6.80;5.20;;;24.00;93.80;;;;;;6211045;23;20024;-73
2023/07/24 12:35:34;;;;;;;6.97;6.28;;;24.00;93.40;;;;;;6212277;23;20183;-73
2023/07/24 12:38:00;;;;;;;9.77;6.20;;;24.10;93.40;;;;;;6211794;23;20087;-74
2023/07/24 12:40:25;;;;;;;8.20;6.00;;;24.10;93.30;;;;;;6211032;23;20018;-73